This is the latest recevied weather packets stored in our database for station/object K9JWM. If no packets are shown the sender has not sent any weather packets the latest 10 day(s).
| Time | Temp. | Humidity | Pressure | Rain* | Wind** | Luminosity | Snow |
|---|---|---|---|---|---|---|---|
| 1777824129 | 15.56° C | 48% | 1003.6 hPa | 0 mm | - | - | - |
| 1777823230 | 15° C | 51% | 1003.6 hPa | 0 mm | - | - | - |
| 1777822329 | 14.44° C | 54% | 1003.8 hPa | 0 mm | - | - | - |
| 1777821430 | 14.44° C | 53% | 1003.9 hPa | 0 mm | - | - | - |
| 1777820530 | 13.89° C | 56% | 1004 hPa | 0 mm | - | - | - |
| 1777819630 | 13.89° C | 56% | 1004.1 hPa | 0 mm | - | - | - |
| 1777818729 | 13.89° C | 57% | 1004.1 hPa | 0 mm | - | - | - |
| 1777817829 | 13.89° C | 56% | 1004.1 hPa | 0 mm | - | - | - |
| 1777816930 | 13.33° C | 59% | 1004.1 hPa | 0 mm | - | - | - |
| 1777816029 | 12.78° C | 63% | 1004.2 hPa | 0 mm | - | - | - |
| 1777815129 | 12.22° C | 63% | 1004.2 hPa | 0 mm | - | - | - |
| 1777814229 | 10.56° C | 72% | 1004.3 hPa | 0 mm | - | - | - |
| 1777813329 | 9.44° C | 76% | 1004.3 hPa | 0 mm | - | - | - |
| 1777812429 | 8.89° C | 76% | 1004.3 hPa | 0 mm | - | - | - |
| 1777811530 | 8.89° C | 77% | 1004.4 hPa | 0 mm | - | - | - |
| 1777810630 | 8.33° C | 78% | 1004.4 hPa | 0 mm | - | - | - |
| 1777809729 | 7.78° C | 78% | 1004.4 hPa | 0 mm | - | - | - |
| 1777808829 | 7.78° C | 78% | 1004.4 hPa | 0 mm | - | - | - |
| 1777807930 | 7.78° C | 78% | 1004.4 hPa | 0 mm | - | - | - |
| 1777807029 | 7.78° C | 77% | 1004.2 hPa | 0 mm | - | - | - |
| 1777806129 | 7.78° C | 78% | 1004.3 hPa | 0 mm | - | - | - |
| 1777805229 | 7.78° C | 78% | 1004.5 hPa | 0 mm | - | - | - |
| 1777804329 | 8.33° C | 77% | 1004.7 hPa | 0 mm | - | - | - |
| 1777803430 | 8.33° C | 77% | 1004.8 hPa | 0 mm | - | - | - |
| 1777802530 | 8.89° C | 76% | 1005 hPa | 0 mm | - | - | - |
* Rain latest hour (hover to see other rain measurements)
** Current wind speed in m/s (hover to see current wind gust speed)